sensor_id;sensor_type;location;lat;lon;timestamp;pressure;altitude;pressure_sealevel;temperature;humidity
69411;BME280;56604;48.652;9.194;2023-03-16T00:02:00;96587.50;;;0.64;95.56
69411;BME280;56604;48.652;9.194;2023-03-16T00:04:25;96591.22;;;0.61;95.16
69411;BME280;56604;48.652;9.194;2023-03-16T00:06:50;96585.78;;;0.56;95.59
69411;BME280;56604;48.652;9.194;2023-03-16T00:09:16;96579.44;;;0.59;95.88
69411;BME280;56604;48.652;9.194;2023-03-16T00:11:41;96583.03;;;0.58;96.12
69411;BME280;56604;48.652;9.194;2023-03-16T00:14:07;96583.38;;;0.55;96.05
69411;BME280;56604;48.652;9.194;2023-03-16T00:16:32;96583.75;;;0.52;95.96
69411;BME280;56604;48.652;9.194;2023-03-16T00:18:59;96580.81;;;0.55;95.58
69411;BME280;56604;48.652;9.194;2023-03-16T00:21:28;96582.16;;;0.65;95.08
69411;BME280;56604;48.652;9.194;2023-03-16T00:23:55;96583.13;;;0.64;95.57
69411;BME280;56604;48.652;9.194;2023-03-16T00:26:21;96579.91;;;0.62;95.68
69411;BME280;56604;48.652;9.194;2023-03-16T00:28:46;96580.25;;;0.59;95.03
69411;BME280;56604;48.652;9.194;2023-03-16T00:31:12;96577.84;;;0.58;95.44
69411;BME280;56604;48.652;9.194;2023-03-16T00:33:38;96574.91;;;0.61;95.71
69411;BME280;56604;48.652;9.194;2023-03-16T00:36:07;96572.75;;;0.64;95.46
69411;BME280;56604;48.652;9.194;2023-03-16T00:38:36;96577.16;;;0.64;95.81
69411;BME280;56604;48.652;9.194;2023-03-16T00:41:03;96587.22;;;0.74;95.04
69411;BME280;56604;48.652;9.194;2023-03-16T00:43:30;96583.56;;;0.68;94.86
69411;BME280;56604;48.652;9.194;2023-03-16T00:45:59;96584.75;;;0.65;95.16
69411;BME280;56604;48.652;9.194;2023-03-16T00:48:31;96578.75;;;0.65;94.90
69411;BME280;56604;48.652;9.194;2023-03-16T00:51:01;96585.19;;;0.69;95.18
69411;BME280;56604;48.652;9.194;2023-03-16T00:53:27;96580.72;;;0.63;95.25
69411;BME280;56604;48.652;9.194;2023-03-16T00:55:52;96583.38;;;0.55;95.42
69411;BME280;56604;48.652;9.194;2023-03-16T00:58:18;96573.56;;;0.50;95.33
69411;BME280;56604;48.652;9.194;2023-03-16T01:00:44;96592.72;;;0.41;95.65
69411;BME280;56604;48.652;9.194;2023-03-16T01:03:10;96582.91;;;0.36;95.58
69411;BME280;56604;48.652;9.194;2023-03-16T01:05:40;96587.78;;;0.31;96.02
69411;BME280;56604;48.652;9.194;2023-03-16T01:08:06;96590.88;;;0.12;95.99
69411;BME280;56604;48.652;9.194;2023-03-16T01:10:33;96596.66;;;0.14;96.22
69411;BME280;56604;48.652;9.194;2023-03-16T01:12:59;96601.09;;;0.05;95.55
69411;BME280;56604;48.652;9.194;2023-03-16T01:15:24;96593.19;;;0.07;96.22
69411;BME280;56604;48.652;9.194;2023-03-16T01:17:49;96594.91;;;-0.09;95.76
69411;BME280;56604;48.652;9.194;2023-03-16T01:20:16;96598.53;;;-0.18;96.35
69411;BME280;56604;48.652;9.194;2023-03-16T01:22:43;96591.19;;;-0.29;96.79
69411;BME280;56604;48.652;9.194;2023-03-16T01:25:10;96589.13;;;-0.34;97.57
69411;BME280;56604;48.652;9.194;2023-03-16T01:27:36;96585.22;;;-0.30;97.53
69411;BME280;56604;48.652;9.194;2023-03-16T01:30:03;96579.88;;;-0.28;97.74
69411;BME280;56604;48.652;9.194;2023-03-16T01:32:29;96580.97;;;-0.22;97.60
69411;BME280;56604;48.652;9.194;2023-03-16T01:34:55;96581.44;;;-0.19;97.50
69411;BME280;56604;48.652;9.194;2023-03-16T01:37:20;96583.03;;;-0.18;97.82
69411;BME280;56604;48.652;9.194;2023-03-16T01:39:50;96572.34;;;-0.15;97.84
69411;BME280;56604;48.652;9.194;2023-03-16T01:42:15;96580.75;;;-0.13;97.29
69411;BME280;56604;48.652;9.194;2023-03-16T01:44:56;96562.72;;;-0.21;97.64
69411;BME280;56604;48.652;9.194;2023-03-16T01:47:22;96570.66;;;-0.22;97.75
69411;BME280;56604;48.652;9.194;2023-03-16T01:49:49;96572.41;;;-0.23;97.98
69411;BME280;56604;48.652;9.194;2023-03-16T01:52:22;96566.63;;;-0.25;97.92
69411;BME280;56604;48.652;9.194;2023-03-16T01:54:56;96563.00;;;-0.16;97.86
69411;BME280;56604;48.652;9.194;2023-03-16T01:57:25;96564.53;;;-0.07;97.26
69411;BME280;56604;48.652;9.194;2023-03-16T01:59:58;96568.66;;;0.03;97.16
69411;BME280;56604;48.652;9.194;2023-03-16T02:02:32;96554.41;;;0.07;96.17
69411;BME280;56604;48.652;9.194;2023-03-16T02:05:03;96555.66;;;0.11;95.73
69411;BME280;56604;48.652;9.194;2023-03-16T02:07:33;96557.66;;;0.09;95.08
69411;BME280;56604;48.652;9.194;2023-03-16T02:10:01;96566.00;;;0.11;95.28
69411;BME280;56604;48.652;9.194;2023-03-16T02:12:27;96555.63;;;-0.04;95.32
69411;BME280;56604;48.652;9.194;2023-03-16T02:14:54;96555.97;;;-0.07;95.43
69411;BME280;56604;48.652;9.194;2023-03-16T02:17:23;96555.69;;;-0.12;95.30
69411;BME280;56604;48.652;9.194;2023-03-16T02:20:02;96553.06;;;-0.27;95.83
69411;BME280;56604;48.652;9.194;2023-03-16T02:22:34;96542.44;;;-0.32;96.16
69411;BME280;56604;48.652;9.194;2023-03-16T02:25:00;96540.41;;;-0.37;96.22
69411;BME280;56604;48.652;9.194;2023-03-16T02:30:12;96533.25;;;-0.35;97.09
69411;BME280;56604;48.652;9.194;2023-03-16T02:32:39;96533.81;;;-0.39;97.40
69411;BME280;56604;48.652;9.194;2023-03-16T02:35:06;96529.78;;;-0.42;97.19
69411;BME280;56604;48.652;9.194;2023-03-16T02:37:31;96520.25;;;-0.41;97.74
69411;BME280;56604;48.652;9.194;2023-03-16T02:40:01;96531.81;;;-0.37;97.59
69411;BME280;56604;48.652;9.194;2023-03-16T02:42:30;96536.38;;;-0.39;97.47
69411;BME280;56604;48.652;9.194;2023-03-16T02:44:57;96538.31;;;-0.41;97.46
69411;BME280;56604;48.652;9.194;2023-03-16T02:49:51;96532.53;;;-0.43;97.29
69411;BME280;56604;48.652;9.194;2023-03-16T02:52:16;96538.69;;;-0.44;97.16
69411;BME280;56604;48.652;9.194;2023-03-16T02:54:42;96529.94;;;-0.43;97.27
69411;BME280;56604;48.652;9.194;2023-03-16T02:57:08;96531.38;;;-0.41;96.89
69411;BME280;56604;48.652;9.194;2023-03-16T02:59:33;96536.38;;;-0.39;97.03
69411;BME280;56604;48.652;9.194;2023-03-16T03:01:58;96524.72;;;-0.35;96.92
69411;BME280;56604;48.652;9.194;2023-03-16T03:04:24;96530.19;;;-0.30;96.96
69411;BME280;56604;48.652;9.194;2023-03-16T03:06:50;96523.22;;;-0.30;96.39
69411;BME280;56604;48.652;9.194;2023-03-16T03:09:16;96515.03;;;-0.33;96.07
69411;BME280;56604;48.652;9.194;2023-03-16T03:11:42;96517.25;;;-0.30;96.24
69411;BME280;56604;48.652;9.194;2023-03-16T03:14:08;96515.19;;;-0.35;96.02
69411;BME280;56604;48.652;9.194;2023-03-16T03:16:33;96516.97;;;-0.35;96.23
69411;BME280;56604;48.652;9.194;2023-03-16T03:18:58;96510.03;;;-0.35;95.97
69411;BME280;56604;48.652;9.194;2023-03-16T03:21:24;96510.22;;;-0.36;96.02
69411;BME280;56604;48.652;9.194;2023-03-16T03:23:50;96511.16;;;-0.37;96.28
69411;BME280;56604;48.652;9.194;2023-03-16T03:26:16;96525.50;;;-0.35;96.21
69411;BME280;56604;48.652;9.194;2023-03-16T03:28:42;96513.69;;;-0.29;96.23
69411;BME280;56604;48.652;9.194;2023-03-16T03:31:21;96509.16;;;-0.27;95.81
69411;BME280;56604;48.652;9.194;2023-03-16T03:33:47;96513.81;;;-0.22;96.22
69411;BME280;56604;48.652;9.194;2023-03-16T03:36:13;96510.16;;;-0.28;95.70
69411;BME280;56604;48.652;9.194;2023-03-16T03:38:39;96513.34;;;-0.26;96.15
69411;BME280;56604;48.652;9.194;2023-03-16T03:41:05;96500.84;;;-0.37;95.67
69411;BME280;56604;48.652;9.194;2023-03-16T03:43:32;96496.38;;;-0.43;95.67
69411;BME280;56604;48.652;9.194;2023-03-16T03:45:58;96494.44;;;-0.41;95.91
69411;BME280;56604;48.652;9.194;2023-03-16T03:48:24;96496.06;;;-0.49;95.70
69411;BME280;56604;48.652;9.194;2023-03-16T03:50:50;96498.66;;;-0.49;96.62
69411;BME280;56604;48.652;9.194;2023-03-16T03:53:16;96493.84;;;-0.52;96.17
69411;BME280;56604;48.652;9.194;2023-03-16T03:55:41;96495.19;;;-0.56;96.15
69411;BME280;56604;48.652;9.194;2023-03-16T03:58:07;96494.53;;;-0.58;96.44
69411;BME280;56604;48.652;9.194;2023-03-16T04:00:32;96492.00;;;-0.66;96.52
69411;BME280;56604;48.652;9.194;2023-03-16T04:02:58;96493.78;;;-0.66;96.96
69411;BME280;56604;48.652;9.194;2023-03-16T04:05:24;96496.97;;;-0.56;96.91
69411;BME280;56604;48.652;9.194;2023-03-16T04:07:54;96492.00;;;-0.66;96.85
69411;BME280;56604;48.652;9.194;2023-03-16T04:10:23;96492.34;;;-0.69;96.75
69411;BME280;56604;48.652;9.194;2023-03-16T04:12:49;96494.94;;;-0.69;96.85
69411;BME280;56604;48.652;9.194;2023-03-16T04:15:14;96495.56;;;-0.67;96.94
69411;BME280;56604;48.652;9.194;2023-03-16T04:17:39;96493.44;;;-0.63;96.39
69411;BME280;56604;48.652;9.194;2023-03-16T04:20:05;96492.59;;;-0.56;96.48
69411;BME280;56604;48.652;9.194;2023-03-16T04:22:36;96489.81;;;-0.54;96.45
69411;BME280;56604;48.652;9.194;2023-03-16T04:25:02;96485.50;;;-0.54;96.03
69411;BME280;56604;48.652;9.194;2023-03-16T04:27:27;96485.50;;;-0.54;95.94
69411;BME280;56604;48.652;9.194;2023-03-16T04:29:52;96484.34;;;-0.51;96.02
69411;BME280;56604;48.652;9.194;2023-03-16T04:32:22;96477.41;;;-0.51;95.62
69411;BME280;56604;48.652;9.194;2023-03-16T04:34:50;96467.56;;;-0.55;95.33
69411;BME280;56604;48.652;9.194;2023-03-16T04:37:19;96470.78;;;-0.53;95.71
69411;BME280;56604;48.652;9.194;2023-03-16T04:39:46;96468.72;;;-0.58;95.72
69411;BME280;56604;48.652;9.194;2023-03-16T04:42:11;96475.22;;;-0.62;95.88
69411;BME280;56604;48.652;9.194;2023-03-16T04:44:37;96468.63;;;-0.64;95.34
69411;BME280;56604;48.652;9.194;2023-03-16T04:47:09;96469.53;;;-0.57;95.73
69411;BME280;56604;48.652;9.194;2023-03-16T04:49:34;96470.00;;;-0.54;95.37
69411;BME280;56604;48.652;9.194;2023-03-16T04:52:00;96465.69;;;-0.61;95.31
69411;BME280;56604;48.652;9.194;2023-03-16T04:54:26;96460.69;;;-0.63;95.39
69411;BME280;56604;48.652;9.194;2023-03-16T04:56:51;96460.25;;;-0.66;95.63
69411;BME280;56604;48.652;9.194;2023-03-16T04:59:16;96458.75;;;-0.61;94.98
69411;BME280;56604;48.652;9.194;2023-03-16T05:01:42;96468.44;;;-0.63;95.25
69411;BME280;56604;48.652;9.194;2023-03-16T05:04:07;96467.63;;;-0.63;94.61
69411;BME280;56604;48.652;9.194;2023-03-16T05:06:33;96469.06;;;-0.61;95.00
69411;BME280;56604;48.652;9.194;2023-03-16T05:08:59;96466.16;;;-0.58;94.56
69411;BME280;56604;48.652;9.194;2023-03-16T05:11:25;96471.94;;;-0.56;94.22
69411;BME280;56604;48.652;9.194;2023-03-16T05:13:50;96467.13;;;-0.59;93.79
69411;BME280;56604;48.652;9.194;2023-03-16T05:16:16;96468.38;;;-0.55;93.80
69411;BME280;56604;48.652;9.194;2023-03-16T05:18:41;96461.28;;;-0.53;93.83
69411;BME280;56604;48.652;9.194;2023-03-16T05:21:06;96455.81;;;-0.58;93.60
69411;BME280;56604;48.652;9.194;2023-03-16T05:23:32;96465.78;;;-0.55;93.82
69411;BME280;56604;48.652;9.194;2023-03-16T05:25:57;96462.41;;;-0.55;93.47
69411;BME280;56604;48.652;9.194;2023-03-16T05:28:24;96460.91;;;-0.50;93.27
69411;BME280;56604;48.652;9.194;2023-03-16T05:30:49;96458.28;;;-0.41;92.98
69411;BME280;56604;48.652;9.194;2023-03-16T05:33:15;96458.28;;;-0.41;92.91
69411;BME280;56604;48.652;9.194;2023-03-16T05:35:41;96463.59;;;-0.43;92.27
69411;BME280;56604;48.652;9.194;2023-03-16T05:38:07;96468.25;;;-0.38;93.04
69411;BME280;56604;48.652;9.194;2023-03-16T05:40:34;96466.75;;;-0.33;92.39
69411;BME280;56604;48.652;9.194;2023-03-16T05:42:59;96459.56;;;-0.22;92.33
69411;BME280;56604;48.652;9.194;2023-03-16T05:45:25;96460.28;;;-0.14;91.46
69411;BME280;56604;48.652;9.194;2023-03-16T05:47:50;96461.09;;;0.02;91.45
69411;BME280;56604;48.652;9.194;2023-03-16T05:50:16;96460.41;;;0.08;91.47
69411;BME280;56604;48.652;9.194;2023-03-16T05:52:43;96460.31;;;0.16;90.56
69411;BME280;56604;48.652;9.194;2023-03-16T05:55:09;96454.06;;;0.25;89.89
69411;BME280;56604;48.652;9.194;2023-03-16T05:57:35;96454.22;;;0.53;90.30
69411;BME280;56604;48.652;9.194;2023-03-16T06:00:02;96452.63;;;0.67;88.71
69411;BME280;56604;48.652;9.194;2023-03-16T06:02:41;96453.69;;;0.73;88.92
69411;BME280;56604;48.652;9.194;2023-03-16T06:05:06;96454.38;;;0.81;87.95
69411;BME280;56604;48.652;9.194;2023-03-16T06:07:33;96448.19;;;0.82;87.58
69411;BME280;56604;48.652;9.194;2023-03-16T06:09:58;96451.47;;;0.91;87.32
69411;BME280;56604;48.652;9.194;2023-03-16T06:12:23;96439.47;;;1.05;87.24
69411;BME280;56604;48.652;9.194;2023-03-16T06:14:48;96441.59;;;1.16;86.69
69411;BME280;56604;48.652;9.194;2023-03-16T06:17:15;96439.47;;;1.48;85.79
69411;BME280;56604;48.652;9.194;2023-03-16T06:19:40;96441.03;;;1.92;84.34
69411;BME280;56604;48.652;9.194;2023-03-16T06:22:05;96444.47;;;2.34;82.39
69411;BME280;56604;48.652;9.194;2023-03-16T06:24:32;96443.56;;;2.55;80.59
69411;BME280;56604;48.652;9.194;2023-03-16T06:26:57;96440.72;;;2.91;78.98
69411;BME280;56604;48.652;9.194;2023-03-16T06:29:23;96435.13;;;3.07;78.48
69411;BME280;56604;48.652;9.194;2023-03-16T06:31:48;96442.38;;;3.32;77.09
69411;BME280;56604;48.652;9.194;2023-03-16T06:34:15;96443.22;;;3.59;74.14
69411;BME280;56604;48.652;9.194;2023-03-16T06:36:40;96441.63;;;3.65;74.67
69411;BME280;56604;48.652;9.194;2023-03-16T06:39:06;96447.81;;;3.64;73.66
69411;BME280;56604;48.652;9.194;2023-03-16T06:41:31;96440.00;;;3.44;74.77
69411;BME280;56604;48.652;9.194;2023-03-16T06:43:56;96441.41;;;3.86;73.51
69411;BME280;56604;48.652;9.194;2023-03-16T06:46:22;96439.16;;;4.10;73.43
69411;BME280;56604;48.652;9.194;2023-03-16T06:48:47;96439.88;;;4.57;71.94
69411;BME280;56604;48.652;9.194;2023-03-16T06:51:12;96441.97;;;4.80;69.09
69411;BME280;56604;48.652;9.194;2023-03-16T06:53:37;96422.34;;;5.47;68.59
69411;BME280;56604;48.652;9.194;2023-03-16T06:56:03;96428.25;;;5.36;66.62
69411;BME280;56604;48.652;9.194;2023-03-16T06:58:28;96443.75;;;5.56;65.79
69411;BME280;56604;48.652;9.194;2023-03-16T07:00:55;96442.19;;;5.48;66.60
69411;BME280;56604;48.652;9.194;2023-03-16T07:03:20;96439.25;;;6.38;64.36
69411;BME280;56604;48.652;9.194;2023-03-16T07:05:46;96441.56;;;6.46;63.43
69411;BME280;56604;48.652;9.194;2023-03-16T07:08:11;96438.13;;;6.46;63.81
69411;BME280;56604;48.652;9.194;2023-03-16T07:10:39;96440.31;;;6.30;63.52
69411;BME280;56604;48.652;9.194;2023-03-16T07:13:04;96441.91;;;6.31;63.57
69411;BME280;56604;48.652;9.194;2023-03-16T07:15:30;96441.63;;;6.40;62.50
69411;BME280;56604;48.652;9.194;2023-03-16T07:17:55;96451.72;;;6.36;62.91
69411;BME280;56604;48.652;9.194;2023-03-16T07:20:21;96452.38;;;6.50;63.52
69411;BME280;56604;48.652;9.194;2023-03-16T07:22:46;96445.00;;;7.26;60.58
69411;BME280;56604;48.652;9.194;2023-03-16T07:25:12;96453.72;;;6.89;60.56
69411;BME280;56604;48.652;9.194;2023-03-16T07:27:38;96456.22;;;7.44;59.77
69411;BME280;56604;48.652;9.194;2023-03-16T07:30:05;96458.84;;;7.14;61.58
69411;BME280;56604;48.652;9.194;2023-03-16T07:32:31;96460.69;;;6.77;60.34
69411;BME280;56604;48.652;9.194;2023-03-16T07:34:57;96449.09;;;7.63;59.89
69411;BME280;56604;48.652;9.194;2023-03-16T07:37:23;96456.19;;;7.98;58.25
69411;BME280;56604;48.652;9.194;2023-03-16T07:39:49;96456.31;;;7.80;57.84
69411;BME280;56604;48.652;9.194;2023-03-16T07:42:14;96452.81;;;7.56;58.72
69411;BME280;56604;48.652;9.194;2023-03-16T07:44:39;96455.63;;;7.42;59.56
69411;BME280;56604;48.652;9.194;2023-03-16T07:47:05;96458.50;;;7.22;59.06
69411;BME280;56604;48.652;9.194;2023-03-16T07:49:31;96450.09;;;7.62;59.04
69411;BME280;56604;48.652;9.194;2023-03-16T07:51:56;96462.56;;;8.02;57.82
69411;BME280;56604;48.652;9.194;2023-03-16T07:54:21;96451.53;;;8.00;58.09
69411;BME280;56604;48.652;9.194;2023-03-16T07:56:48;96455.31;;;8.51;56.23
69411;BME280;56604;48.652;9.194;2023-03-16T07:59:13;96460.28;;;7.29;58.33
69411;BME280;56604;48.652;9.194;2023-03-16T08:01:39;96463.09;;;6.79;60.02
69411;BME280;56604;48.652;9.194;2023-03-16T08:04:04;96459.16;;;7.06;59.39
69411;BME280;56604;48.652;9.194;2023-03-16T08:06:30;96452.03;;;7.55;58.16
69411;BME280;56604;48.652;9.194;2023-03-16T08:08:56;96450.16;;;7.98;56.89
69411;BME280;56604;48.652;9.194;2023-03-16T08:11:23;96458.63;;;7.46;59.88
69411;BME280;56604;48.652;9.194;2023-03-16T08:13:50;96448.00;;;8.06;58.70
69411;BME280;56604;48.652;9.194;2023-03-16T08:16:22;96456.19;;;8.22;56.95
69411;BME280;56604;48.652;9.194;2023-03-16T08:18:48;96455.50;;;8.62;56.66
69411;BME280;56604;48.652;9.194;2023-03-16T08:21:15;96455.41;;;8.09;55.65
69411;BME280;56604;48.652;9.194;2023-03-16T08:23:41;96456.97;;;7.75;56.52
69411;BME280;56604;48.652;9.194;2023-03-16T08:26:08;96463.03;;;8.23;55.94
69411;BME280;56604;48.652;9.194;2023-03-16T08:28:34;96454.31;;;8.81;54.66
69411;BME280;56604;48.652;9.194;2023-03-16T08:31:00;96457.13;;;8.39;55.80
69411;BME280;56604;48.652;9.194;2023-03-16T08:33:25;96457.34;;;8.26;55.64
69411;BME280;56604;48.652;9.194;2023-03-16T08:35:52;96452.56;;;8.23;55.92
69411;BME280;56604;48.652;9.194;2023-03-16T08:38:18;96456.19;;;8.69;53.89
69411;BME280;56604;48.652;9.194;2023-03-16T08:40:44;96449.09;;;7.63;56.81
69411;BME280;56604;48.652;9.194;2023-03-16T08:43:16;96450.34;;;8.78;55.56
69411;BME280;56604;48.652;9.194;2023-03-16T08:45:47;96451.19;;;8.55;54.23
69411;BME280;56604;48.652;9.194;2023-03-16T08:48:12;96448.25;;;8.40;55.70
69411;BME280;56604;48.652;9.194;2023-03-16T08:50:42;96445.47;;;8.59;56.90
69411;BME280;56604;48.652;9.194;2023-03-16T08:53:08;96438.19;;;9.01;53.38
69411;BME280;56604;48.652;9.194;2023-03-16T08:55:34;96442.69;;;7.59;56.58
69411;BME280;56604;48.652;9.194;2023-03-16T08:58:01;96439.13;;;8.07;55.42
69411;BME280;56604;48.652;9.194;2023-03-16T09:00:27;96436.63;;;8.13;57.49
69411;BME280;56604;48.652;9.194;2023-03-16T09:02:53;96440.25;;;8.59;54.30
69411;BME280;56604;48.652;9.194;2023-03-16T09:05:19;96435.69;;;8.66;54.71
69411;BME280;56604;48.652;9.194;2023-03-16T09:07:45;96434.22;;;8.11;55.12
69411;BME280;56604;48.652;9.194;2023-03-16T09:10:11;96430.81;;;8.34;55.43
69411;BME280;56604;48.652;9.194;2023-03-16T09:12:40;96437.00;;;8.80;53.83
69411;BME280;56604;48.652;9.194;2023-03-16T09:15:07;96434.50;;;8.73;54.25
69411;BME280;56604;48.652;9.194;2023-03-16T09:17:34;96437.16;;;9.48;53.77
69411;BME280;56604;48.652;9.194;2023-03-16T09:20:00;96437.47;;;8.77;54.82
69411;BME280;56604;48.652;9.194;2023-03-16T09:22:26;96426.31;;;9.73;52.95
69411;BME280;56604;48.652;9.194;2023-03-16T09:24:52;96443.22;;;8.50;53.88
69411;BME280;56604;48.652;9.194;2023-03-16T09:27:17;96436.13;;;9.32;54.02
69411;BME280;56604;48.652;9.194;2023-03-16T09:29:45;96424.00;;;8.85;54.55
69411;BME280;56604;48.652;9.194;2023-03-16T09:32:11;96432.06;;;8.43;55.22
69411;BME280;56604;48.652;9.194;2023-03-16T09:34:37;96417.09;;;8.67;55.60
69411;BME280;56604;48.652;9.194;2023-03-16T09:37:03;96414.72;;;9.23;54.78
69411;BME280;56604;48.652;9.194;2023-03-16T09:39:29;96412.47;;;9.15;54.00
69411;BME280;56604;48.652;9.194;2023-03-16T09:42:19;96421.75;;;9.34;55.56
69411;BME280;56604;48.652;9.194;2023-03-16T09:45:02;96413.34;;;9.66;53.06
69411;BME280;56604;48.652;9.194;2023-03-16T09:47:32;96408.09;;;10.39;52.47
69411;BME280;56604;48.652;9.194;2023-03-16T09:50:02;96404.22;;;10.07;51.34
69411;BME280;56604;48.652;9.194;2023-03-16T09:52:37;96401.81;;;10.84;51.98
69411;BME280;56604;48.652;9.194;2023-03-16T09:57:41;96394.72;;;10.40;50.11
69411;BME280;56604;48.652;9.194;2023-03-16T10:00:26;96393.44;;;9.87;51.66
69411;BME280;56604;48.652;9.194;2023-03-16T10:05:38;96388.34;;;9.97;50.70
69411;BME280;56604;48.652;9.194;2023-03-16T10:08:13;96385.50;;;9.31;54.65
69411;BME280;56604;48.652;9.194;2023-03-16T10:16:15;96396.56;;;9.05;55.00
69411;BME280;56604;48.652;9.194;2023-03-16T10:18:46;96392.25;;;9.78;55.01
69411;BME280;56604;48.652;9.194;2023-03-16T10:21:16;96395.53;;;9.68;52.33
69411;BME280;56604;48.652;9.194;2023-03-16T10:23:45;96400.53;;;9.07;51.66
69411;BME280;56604;48.652;9.194;2023-03-16T10:26:16;96408.94;;;8.92;50.96
69411;BME280;56604;48.652;9.194;2023-03-16T10:28:44;96406.03;;;9.51;50.33
69411;BME280;56604;48.652;9.194;2023-03-16T10:31:11;96396.59;;;9.21;51.77
69411;BME280;56604;48.652;9.194;2023-03-16T10:33:37;96381.94;;;9.71;50.59
69411;BME280;56604;48.652;9.194;2023-03-16T10:36:30;96378.34;;;10.33;49.44
69411;BME280;56604;48.652;9.194;2023-03-16T10:39:07;96383.19;;;10.24;50.27
69411;BME280;56604;48.652;9.194;2023-03-16T10:41:38;96387.97;;;9.72;51.58
69411;BME280;56604;48.652;9.194;2023-03-16T10:44:13;96385.13;;;9.56;49.22
69411;BME280;56604;48.652;9.194;2023-03-16T10:46:49;96380.97;;;9.60;48.86
69411;BME280;56604;48.652;9.194;2023-03-16T10:49:55;96384.69;;;9.81;49.26
69411;BME280;56604;48.652;9.194;2023-03-16T10:54:58;96374.00;;;10.05;49.44
69411;BME280;56604;48.652;9.194;2023-03-16T10:57:26;96360.44;;;10.13;48.24
69411;BME280;56604;48.652;9.194;2023-03-16T10:59:59;96361.47;;;9.73;47.43
69411;BME280;56604;48.652;9.194;2023-03-16T11:02:32;96356.50;;;10.10;48.40
69411;BME280;56604;48.652;9.194;2023-03-16T11:07:48;96342.50;;;10.05;47.97
69411;BME280;56604;48.652;9.194;2023-03-16T11:10:33;96353.81;;;9.88;47.52
69411;BME280;56604;48.652;9.194;2023-03-16T11:13:19;96347.72;;;9.66;49.00
69411;BME280;56604;48.652;9.194;2023-03-16T11:18:28;96351.41;;;10.04;48.33
69411;BME280;56604;48.652;9.194;2023-03-16T11:20:55;96352.91;;;10.39;47.05
69411;BME280;56604;48.652;9.194;2023-03-16T11:23:29;96340.91;;;10.70;47.28
69411;BME280;56604;48.652;9.194;2023-03-16T11:25:57;96347.84;;;10.32;46.06
69411;BME280;56604;48.652;9.194;2023-03-16T11:28:37;96341.22;;;9.52;47.86
69411;BME280;56604;48.652;9.194;2023-03-16T11:31:26;96327.91;;;10.14;48.03
69411;BME280;56604;48.652;9.194;2023-03-16T11:33:56;96331.63;;;10.18;48.29
69411;BME280;56604;48.652;9.194;2023-03-16T11:36:34;96338.31;;;9.70;47.48
69411;BME280;56604;48.652;9.194;2023-03-16T11:39:09;96336.94;;;9.84;48.52
69411;BME280;56604;48.652;9.194;2023-03-16T11:45:02;96326.53;;;10.28;47.27
69411;BME280;56604;48.652;9.194;2023-03-16T11:53:02;96318.88;;;10.27;46.43
69411;BME280;56604;48.652;9.194;2023-03-16T11:55:38;96317.66;;;10.84;44.63
69411;BME280;56604;48.652;9.194;2023-03-16T12:06:26;96299.81;;;10.37;44.97
69411;BME280;56604;48.652;9.194;2023-03-16T12:11:50;96299.31;;;10.62;45.83
69411;BME280;56604;48.652;9.194;2023-03-16T12:14:23;96293.38;;;10.27;41.68
69411;BME280;56604;48.652;9.194;2023-03-16T12:16:55;96290.97;;;10.43;42.94
69411;BME280;56604;48.652;9.194;2023-03-16T12:19:52;96280.00;;;10.51;40.44
69411;BME280;56604;48.652;9.194;2023-03-16T12:22:26;96274.41;;;10.69;42.08
69411;BME280;56604;48.652;9.194;2023-03-16T12:24:54;96264.47;;;10.76;39.35
69411;BME280;56604;48.652;9.194;2023-03-16T12:27:23;96273.50;;;10.58;41.39
69411;BME280;56604;48.652;9.194;2023-03-16T12:29:56;96263.59;;;10.66;40.61
69411;BME280;56604;48.652;9.194;2023-03-16T12:35:01;96272.44;;;10.87;38.52
69411;BME280;56604;48.652;9.194;2023-03-16T12:37:35;96273.22;;;11.14;41.67
69411;BME280;56604;48.652;9.194;2023-03-16T12:45:26;96275.19;;;10.97;39.13
69411;BME280;56604;48.652;9.194;2023-03-16T12:48:24;96276.19;;;10.91;40.12
69411;BME280;56604;48.652;9.194;2023-03-16T12:50:54;96272.44;;;10.82;38.84
69411;BME280;56604;48.652;9.194;2023-03-16T12:53:40;96254.38;;;11.28;39.19
69411;BME280;56604;48.652;9.194;2023-03-16T12:56:11;96265.16;;;11.68;40.29
69411;BME280;56604;48.652;9.194;2023-03-16T12:59:04;96253.78;;;11.20;40.19
69411;BME280;56604;48.652;9.194;2023-03-16T13:01:41;96263.28;;;11.21;38.38
69411;BME280;56604;48.652;9.194;2023-03-16T13:04:13;96253.09;;;11.30;38.77
69411;BME280;56604;48.652;9.194;2023-03-16T13:06:52;96253.81;;;11.25;36.78
69411;BME280;56604;48.652;9.194;2023-03-16T13:09:27;96252.63;;;11.86;39.64
69411;BME280;56604;48.652;9.194;2023-03-16T13:11:56;96248.66;;;11.41;38.27
69411;BME280;56604;48.652;9.194;2023-03-16T13:14:41;96247.81;;;11.35;39.21
69411;BME280;56604;48.652;9.194;2023-03-16T13:19:40;96258.78;;;10.90;38.89
69411;BME280;56604;48.652;9.194;2023-03-16T13:24:57;96255.66;;;10.88;38.10
69411;BME280;56604;48.652;9.194;2023-03-16T13:27:31;96250.16;;;10.94;39.49
69411;BME280;56604;48.652;9.194;2023-03-16T13:29:59;96254.09;;;10.92;39.44
69411;BME280;56604;48.652;9.194;2023-03-16T13:32:30;96256.66;;;10.82;38.88
69411;BME280;56604;48.652;9.194;2023-03-16T13:34:58;96254.41;;;11.00;40.27
69411;BME280;56604;48.652;9.194;2023-03-16T13:37:27;96253.63;;;11.00;39.23
69411;BME280;56604;48.652;9.194;2023-03-16T13:39:59;96247.38;;;11.06;38.22
69411;BME280;56604;48.652;9.194;2023-03-16T13:42:27;96228.75;;;10.80;38.19
69411;BME280;56604;48.652;9.194;2023-03-16T13:44:54;96231.31;;;10.75;39.81
69411;BME280;56604;48.652;9.194;2023-03-16T13:47:20;96237.22;;;10.88;40.88
69411;BME280;56604;48.652;9.194;2023-03-16T13:49:54;96231.81;;;10.72;39.46
69411;BME280;56604;48.652;9.194;2023-03-16T13:52:27;96228.56;;;10.60;40.93
69411;BME280;56604;48.652;9.194;2023-03-16T13:54:54;96221.31;;;10.72;39.83
69411;BME280;56604;48.652;9.194;2023-03-16T13:57:23;96224.78;;;10.78;40.95
69411;BME280;56604;48.652;9.194;2023-03-16T13:59:49;96215.13;;;10.89;39.45
69411;BME280;56604;48.652;9.194;2023-03-16T14:02:19;96211.78;;;10.93;38.01
69411;BME280;56604;48.652;9.194;2023-03-16T14:04:46;96217.34;;;11.02;38.39
69411;BME280;56604;48.652;9.194;2023-03-16T14:07:18;96223.69;;;11.06;38.95
69411;BME280;56604;48.652;9.194;2023-03-16T14:09:44;96215.13;;;11.26;38.67